Time;durP1;ratioP1;P1;durP2;ratioP2;P2;SDS_P1;SDS_P2;PMS_P1;PMS_P2;Temp;Humidity;BMP_temperature;BMP_pressure;BME280_temperature;BME280_humidity;BME280_pressure;Samples;Min_cycle;Max_cycle;Signal;HPM_P1;HPM_P2
2021/05/28 00:02:01;;;;;;;8.75;7.22;;;18.80;99.20;;;;;;5036745;28;20064;-76
2021/05/28 00:04:30;;;;;;;7.40;6.72;;;18.80;99.20;;;;;;5036139;28;20071;-76
2021/05/28 00:07:01;;;;;;;8.55;6.68;;;18.80;99.20;;;;;;5035047;28;20029;-76
2021/05/28 00:09:32;;;;;;;6.43;5.82;;;18.80;99.30;;;;;;5035063;28;20076;-77
2021/05/28 00:12:01;;;;;;;7.20;6.53;;;18.80;99.30;;;;;;5034978;28;20025;-77
2021/05/28 00:14:36;;;;;;;7.80;6.55;;;18.80;99.30;;;;;;5036071;28;20041;-76
2021/05/28 00:17:05;;;;;;;8.05;6.53;;;18.80;99.20;;;;;;5036141;28;20029;-77
2021/05/28 00:19:38;;;;;;;7.03;6.32;;;18.80;99.30;;;;;;5035556;28;20494;-76
2021/05/28 00:22:09;;;;;;;9.32;6.78;;;18.80;99.20;;;;;;5019057;28;20815;-77
2021/05/28 00:24:37;;;;;;;7.03;6.32;;;18.80;99.20;;;;;;5042207;28;20090;-77
2021/05/28 00:27:25;;;;;;;6.55;5.95;;;18.80;99.20;;;;;;5075939;28;20037;-76
2021/05/28 00:29:59;;;;;;;8.30;6.57;;;18.80;99.10;;;;;;5058710;28;20374;-77
2021/05/28 00:32:25;;;;;;;7.75;7.05;;;18.70;99.10;;;;;;5058248;28;20111;-76
2021/05/28 00:34:58;;;;;;;7.22;6.57;;;18.70;99.10;;;;;;5075769;28;20442;-77
2021/05/28 00:37:26;;;;;;;8.38;7.13;;;18.60;99.10;;;;;;5059197;28;20029;-76
2021/05/28 00:39:54;;;;;;;7.88;6.55;;;18.70;99.20;;;;;;5075363;28;20090;-76
2021/05/28 00:42:22;;;;;;;7.75;6.93;;;18.60;99.20;;;;;;5057672;28;20016;-76
2021/05/28 00:44:55;;;;;;;7.15;6.45;;;18.60;99.20;;;;;;5075472;28;20421;-76
2021/05/28 00:47:23;;;;;;;8.32;6.40;;;18.60;99.20;;;;;;5057826;28;20086;-76
2021/05/28 00:49:51;;;;;;;9.43;8.52;;;18.60;99.20;;;;;;5074113;28;20377;-77
2021/05/28 00:52:29;;;;;;;9.30;8.40;;;18.60;99.20;;;;;;5075463;28;20055;-77
2021/05/28 00:55:02;;;;;;;9.55;8.63;;;18.50;99.30;;;;;;5057948;28;20029;-76
2021/05/28 00:57:34;;;;;;;8.75;7.95;;;18.50;99.50;;;;;;5075356;28;20026;-76
2021/05/28 01:00:03;;;;;;;8.70;7.90;;;18.50;99.50;;;;;;5067681;28;20044;-77
2021/05/28 01:02:32;;;;;;;8.57;7.65;;;18.50;99.60;;;;;;5037383;28;20032;-76
2021/05/28 01:05:00;;;;;;;8.30;7.50;;;18.50;99.60;;;;;;5021143;28;20021;-76
2021/05/28 01:07:29;;;;;;;8.32;7.50;;;18.40;99.60;;;;;;5055475;28;20029;-76
2021/05/28 01:10:04;;;;;;;8.30;7.28;;;18.40;99.70;;;;;;5037978;28;20352;-76
2021/05/28 01:12:29;;;;;;;8.10;7.00;;;18.40;99.70;;;;;;5055024;28;20473;-76
2021/05/28 01:14:57;;;;;;;7.90;7.10;;;18.40;99.70;;;;;;5054954;28;20095;-76
2021/05/28 01:20:16;;;;;;;7.70;6.97;;;18.40;99.80;;;;;;5054746;28;20467;-77
2021/05/28 01:22:41;;;;;;;7.72;6.80;;;18.40;99.70;;;;;;5055037;28;20453;-77
2021/05/28 01:25:10;;;;;;;8.70;6.95;;;18.40;99.70;;;;;;5047345;28;20053;-77
2021/05/28 01:27:49;;;;;;;7.45;6.75;;;18.40;99.70;;;;;;5017589;28;20060;-76
2021/05/28 01:30:22;;;;;;;8.18;7.22;;;18.40;99.70;;;;;;5001462;28;20022;-76
2021/05/28 01:32:51;;;;;;;7.45;6.75;;;18.40;99.60;;;;;;5017204;28;20029;-76
2021/05/28 01:35:25;;;;;;;8.35;7.28;;;18.40;99.70;;;;;;5034678;28;20026;-77
2021/05/28 01:37:59;;;;;;;8.02;7.22;;;18.40;99.70;;;;;;5018557;28;20385;-76
2021/05/28 01:40:25;;;;;;;8.57;7.38;;;18.40;99.90;;;;;;5034579;28;20021;-76
2021/05/28 01:42:53;;;;;;;7.78;7.05;;;18.30;99.80;;;;;;5034324;28;20475;-76
2021/05/28 01:45:21;;;;;;;7.95;7.15;;;18.30;99.80;;;;;;5034488;28;20086;-76
2021/05/28 01:47:46;;;;;;;8.40;7.03;;;18.40;99.90;;;;;;5015787;28;20033;-76
2021/05/28 01:50:13;;;;;;;9.93;8.02;;;18.40;99.90;;;;;;5012378;28;20041;-76
2021/05/28 01:52:49;;;;;;;10.82;9.07;;;18.40;99.90;;;;;;5016549;28;20064;-76
2021/05/28 01:55:17;;;;;;;10.82;9.82;;;18.40;99.90;;;;;;5034213;28;20025;-76
2021/05/28 01:58:04;;;;;;;10.77;9.43;;;18.40;99.90;;;;;;5034093;28;20026;-77
2021/05/28 02:00:29;;;;;;;10.10;9.10;;;18.50;99.90;;;;;;5033794;28;20029;-76
2021/05/28 02:03:09;;;;;;;;;;;;;;;;;;;;;
2021/05/28 02:05:36;;;;;;;10.48;9.45;;;18.50;99.90;;;;;;5033039;28;20752;-76
2021/05/28 02:08:05;;;;;;;11.35;9.73;;;18.50;99.90;;;;;;5033792;28;20037;-76
2021/05/28 02:10:34;;;;;;;11.57;10.30;;;18.50;99.90;;;;;;5032535;28;20040;-76
2021/05/28 02:13:05;;;;;;;11.63;10.43;;;18.50;99.90;;;;;;5033846;28;20121;-76
2021/05/28 02:15:31;;;;;;;11.77;10.50;;;18.50;99.90;;;;;;5033772;28;20025;-76
2021/05/28 02:18:04;;;;;;;12.02;10.82;;;18.50;99.90;;;;;;5007891;28;20057;-77
2021/05/28 02:20:30;;;;;;;12.77;11.50;;;18.50;99.90;;;;;;4996389;28;20472;-76
2021/05/28 02:22:56;;;;;;;11.15;10.05;;;18.50;99.90;;;;;;5014100;28;20105;-76
2021/05/28 02:25:26;;;;;;;12.23;10.93;;;18.40;99.90;;;;;;4995168;28;20407;-76
2021/05/28 02:27:52;;;;;;;14.02;12.25;;;18.40;99.90;;;;;;5048787;28;20029;-76
2021/05/28 02:30:18;;;;;;;12.90;11.43;;;18.40;99.90;;;;;;5032550;28;20048;-77
2021/05/28 02:32:52;;;;;;;13.38;11.98;;;18.40;99.90;;;;;;5032327;28;20041;-77
2021/05/28 02:35:18;;;;;;;12.13;10.95;;;18.40;99.90;;;;;;5032576;28;20475;-76
2021/05/28 02:37:44;;;;;;;11.75;10.57;;;18.30;99.90;;;;;;5016212;28;20109;-76
2021/05/28 02:40:13;;;;;;;13.13;11.73;;;18.30;99.90;;;;;;5032250;28;20026;-77
2021/05/28 02:42:42;;;;;;;12.63;11.20;;;18.30;99.90;;;;;;5032511;28;20171;-76
2021/05/28 02:45:08;;;;;;;12.55;11.25;;;18.30;99.90;;;;;;5048964;28;20029;-76
2021/05/28 02:47:34;;;;;;;12.10;10.88;;;18.30;99.90;;;;;;5046743;28;20032;-77
2021/05/28 02:49:59;;;;;;;12.32;11.07;;;18.30;99.90;;;;;;5053146;28;20025;-76
2021/05/28 02:52:27;;;;;;;12.27;11.18;;;18.30;99.90;;;;;;5053143;28;20021;-76
2021/05/28 02:54:53;;;;;;;12.30;10.93;;;18.30;99.90;;;;;;5053398;28;20014;-76
2021/05/28 02:57:19;;;;;;;15.60;13.65;;;18.30;99.90;;;;;;5051734;28;20116;-77
2021/05/28 02:59:45;;;;;;;13.63;12.23;;;18.30;99.90;;;;;;5052079;28;20031;-77
2021/05/28 03:02:17;;;;;;;16.80;15.07;;;18.30;99.90;;;;;;5035242;28;20037;-77
2021/05/28 03:05:00;;;;;;;16.38;14.45;;;18.30;99.90;;;;;;5052069;28;20079;-77
2021/05/28 03:07:33;;;;;;;15.95;14.30;;;18.40;99.90;;;;;;5051885;28;20083;-77
2021/05/28 03:10:09;;;;;;;16.08;14.38;;;18.30;99.90;;;;;;5053375;28;20025;-76
2021/05/28 03:12:44;;;;;;;18.00;15.30;;;18.40;99.90;;;;;;5052332;28;20037;-76
2021/05/28 03:15:13;;;;;;;17.15;14.00;;;18.40;99.90;;;;;;5050728;28;20037;-76
2021/05/28 03:18:02;;;;;;;16.85;14.25;;;18.40;99.90;;;;;;5053310;28;20053;-76
2021/05/28 03:20:36;;;;;;;18.85;15.20;;;18.50;99.90;;;;;;5053296;28;20413;-78
2021/05/28 03:23:34;;;;;;;18.65;16.63;;;18.50;99.90;;;;;;5051714;28;20036;-77
2021/05/28 03:26:03;;;;;;;15.13;13.63;;;18.50;99.90;;;;;;5038153;28;20504;-76
2021/05/28 03:28:36;;;;;;;18.50;15.93;;;18.50;99.90;;;;;;5015116;28;20033;-76
2021/05/28 03:31:02;;;;;;;18.63;16.10;;;18.50;99.90;;;;;;5033290;28;20384;-77
2021/05/28 03:33:28;;;;;;;19.98;16.88;;;18.50;99.90;;;;;;5014889;28;20064;-77
2021/05/28 03:35:54;;;;;;;17.13;15.38;;;18.50;99.90;;;;;;5015626;28;20129;-77
2021/05/28 03:38:49;;;;;;;17.85;15.95;;;18.50;99.90;;;;;;5032937;28;20076;-76
2021/05/28 03:41:17;;;;;;;20.10;14.70;;;18.50;99.90;;;;;;5032842;28;20376;-77
2021/05/28 03:43:43;;;;;;;17.13;15.27;;;18.50;99.90;;;;;;5032793;28;20026;-77
2021/05/28 03:46:20;;;;;;;16.90;15.15;;;18.60;99.90;;;;;;5015201;28;20048;-76
2021/05/28 03:48:49;;;;;;;19.13;16.00;;;18.60;99.90;;;;;;5016644;28;20061;-76
2021/05/28 03:51:19;;;;;;;18.90;16.13;;;18.60;99.90;;;;;;5015048;28;20030;-76
2021/05/28 03:53:49;;;;;;;16.27;14.25;;;18.70;99.90;;;;;;5014971;28;20033;-77
2021/05/28 03:56:17;;;;;;;14.80;13.30;;;18.70;99.90;;;;;;5014841;28;20026;-76
2021/05/28 03:58:43;;;;;;;13.43;12.00;;;18.80;99.90;;;;;;5032484;28;20057;-76
2021/05/28 04:01:10;;;;;;;14.75;13.20;;;18.90;99.90;;;;;;5015282;28;20037;-76
2021/05/28 04:03:38;;;;;;;15.23;13.63;;;19.00;99.90;;;;;;5032688;28;20082;-77
2021/05/28 04:06:05;;;;;;;16.80;13.90;;;19.00;99.90;;;;;;5032794;28;20056;-78
2021/05/28 04:08:33;;;;;;;15.20;13.60;;;19.20;99.90;;;;;;5032694;28;20030;-77
2021/05/28 04:10:59;;;;;;;17.70;15.75;;;19.20;99.90;;;;;;5014888;28;20479;-77
2021/05/28 04:13:36;;;;;;;15.70;14.02;;;19.20;99.90;;;;;;5033021;28;20029;-78
2021/05/28 04:16:07;;;;;;;16.35;14.55;;;19.30;99.90;;;;;;5036200;28;20025;-77
2021/05/28 04:18:38;;;;;;;17.67;15.38;;;19.30;99.90;;;;;;5036355;28;20026;-77
2021/05/28 04:21:07;;;;;;;16.15;14.50;;;19.30;99.90;;;;;;5036058;28;20080;-77
2021/05/28 04:23:35;;;;;;;16.63;14.83;;;19.30;99.90;;;;;;5036162;28;20029;-80
2021/05/28 04:26:09;;;;;;;17.80;15.95;;;19.40;99.90;;;;;;5065137;28;20044;-76
2021/05/28 04:28:42;;;;;;;15.35;13.75;;;19.30;99.90;;;;;;5057772;28;20115;-80
2021/05/28 04:31:10;;;;;;;17.20;14.90;;;19.30;99.90;;;;;;5058498;28;20480;-77
2021/05/28 04:33:48;;;;;;;15.65;14.00;;;19.30;99.90;;;;;;5057571;28;20032;-77
2021/05/28 04:36:24;;;;;;;;;;;;;;;;;;;;;
2021/05/28 04:38:50;;;;;;;17.30;15.50;;;19.30;99.90;;;;;;5075861;28;20392;-78
2021/05/28 04:41:15;;;;;;;15.98;14.27;;;19.40;99.90;;;;;;5075556;28;20103;-77
2021/05/28 04:43:50;;;;;;;15.05;13.48;;;19.40;99.90;;;;;;5042260;28;20063;-78
2021/05/28 04:46:18;;;;;;;15.68;13.25;;;19.40;99.90;;;;;;5037762;28;20037;-77
2021/05/28 04:48:46;;;;;;;18.73;13.85;;;19.40;99.90;;;;;;5055610;28;20061;-78
2021/05/28 04:51:16;;;;;;;15.80;13.80;;;19.40;99.90;;;;;;5055239;28;20024;-77
2021/05/28 04:53:44;;;;;;;15.40;13.35;;;19.50;99.90;;;;;;5037711;28;20025;-78
2021/05/28 04:56:15;;;;;;;14.43;12.93;;;19.50;99.90;;;;;;5021583;28;20095;-80
2021/05/28 04:58:41;;;;;;;14.45;12.55;;;19.50;99.90;;;;;;5038193;28;20029;-79
2021/05/28 05:01:07;;;;;;;17.70;13.50;;;19.50;99.90;;;;;;5051066;28;20472;-77
2021/05/28 05:03:33;;;;;;;12.68;11.48;;;19.60;99.90;;;;;;5075221;28;20033;-77
2021/05/28 05:05:59;;;;;;;12.95;11.65;;;19.60;99.90;;;;;;5056432;28;20029;-77
2021/05/28 05:08:25;;;;;;;14.30;12.63;;;19.60;99.90;;;;;;5074775;28;20504;-80
2021/05/28 05:11:04;;;;;;;;;;;;;;;;;;;;;
2021/05/28 05:13:34;;;;;;;16.45;13.57;;;19.70;99.80;;;;;;5043519;28;20035;-77
2021/05/28 05:15:59;;;;;;;15.25;13.38;;;19.70;99.70;;;;;;5074150;28;20033;-77
2021/05/28 05:18:28;;;;;;;15.43;13.82;;;19.70;99.70;;;;;;5074759;28;20044;-79
2021/05/28 05:20:54;;;;;;;14.48;12.98;;;19.70;99.60;;;;;;5039554;28;20036;-78
2021/05/28 05:23:20;;;;;;;14.65;13.15;;;19.60;99.60;;;;;;5056900;28;20420;-77
2021/05/28 05:25:46;;;;;;;15.00;13.45;;;19.70;99.80;;;;;;5053780;28;20443;-78
2021/05/28 05:28:18;;;;;;;14.75;12.73;;;19.70;99.80;;;;;;5074602;28;20033;-77
2021/05/28 05:30:47;;;;;;;12.88;11.25;;;19.70;99.90;;;;;;5073581;28;20029;-78
2021/05/28 05:33:13;;;;;;;13.18;11.20;;;19.80;99.90;;;;;;5056759;28;20097;-77
2021/05/28 05:35:39;;;;;;;11.32;10.23;;;19.80;99.90;;;;;;5056387;28;20028;-78
2021/05/28 05:38:08;;;;;;;12.55;11.25;;;19.90;99.90;;;;;;5056670;28;20139;-79
2021/05/28 05:40:38;;;;;;;11.50;10.33;;;19.90;99.60;;;;;;5036974;28;20120;-78
2021/05/28 05:43:04;;;;;;;9.70;8.35;;;19.90;99.50;;;;;;5036488;28;20033;-79
2021/05/28 05:45:32;;;;;;;9.40;8.50;;;20.00;99.30;;;;;;5054103;28;20490;-78
2021/05/28 05:48:02;;;;;;;8.57;7.65;;;20.10;99.00;;;;;;5053875;28;20037;-79
2021/05/28 05:50:32;;;;;;;8.87;7.67;;;20.10;98.90;;;;;;5036508;28;20115;-78
2021/05/28 05:53:00;;;;;;;8.43;7.63;;;20.20;98.80;;;;;;5036618;28;20112;-80
2021/05/28 05:55:31;;;;;;;11.25;7.40;;;20.20;98.60;;;;;;5054285;28;20032;-77
2021/05/28 05:57:57;;;;;;;8.05;7.25;;;20.20;98.40;;;;;;5054088;28;20075;-79
2021/05/28 06:00:23;;;;;;;8.55;7.70;;;20.20;98.40;;;;;;5035727;28;20417;-79
2021/05/28 06:02:48;;;;;;;8.00;7.03;;;20.30;98.40;;;;;;5035991;28;20048;-78
2021/05/28 06:05:15;;;;;;;8.05;6.82;;;20.30;98.20;;;;;;5053859;28;20072;-77
2021/05/28 06:07:43;;;;;;;8.38;7.35;;;20.40;98.00;;;;;;5036571;28;20550;-79
2021/05/28 06:10:10;;;;;;;7.47;6.78;;;20.40;97.60;;;;;;5053775;28;20040;-77
2021/05/28 06:12:36;;;;;;;6.15;5.60;;;20.50;97.50;;;;;;5034892;28;20059;-77
2021/05/28 06:15:03;;;;;;;7.70;7.00;;;20.50;97.60;;;;;;5035458;28;20049;-75
2021/05/28 06:17:34;;;;;;;8.40;7.47;;;20.50;97.50;;;;;;5035536;28;20047;-76
2021/05/28 06:19:59;;;;;;;7.97;7.18;;;20.50;97.30;;;;;;5035950;28;20032;-76
2021/05/28 06:22:35;;;;;;;6.93;6.32;;;20.60;97.20;;;;;;5035449;28;20029;-76
2021/05/28 06:25:02;;;;;;;8.43;6.60;;;20.60;97.20;;;;;;5020595;28;20052;-76
2021/05/28 06:27:29;;;;;;;6.60;5.90;;;20.60;97.00;;;;;;5052780;28;20031;-78
2021/05/28 06:29:55;;;;;;;7.30;5.75;;;20.60;96.70;;;;;;5053150;28;20075;-76
2021/05/28 06:32:23;;;;;;;8.13;5.93;;;20.60;96.40;;;;;;5053073;28;20021;-76
2021/05/28 06:34:49;;;;;;;7.47;6.05;;;20.60;96.50;;;;;;5053931;28;20025;-77
2021/05/28 06:37:15;;;;;;;7.45;6.63;;;20.60;96.30;;;;;;5052215;28;20116;-75
2021/05/28 06:39:46;;;;;;;6.10;5.50;;;20.60;96.50;;;;;;5036178;28;20021;-76
2021/05/28 06:42:12;;;;;;;7.68;5.30;;;20.70;96.50;;;;;;5053768;28;20067;-76
2021/05/28 06:44:37;;;;;;;5.25;4.70;;;20.70;96.40;;;;;;5053066;28;20020;-77
2021/05/28 06:47:03;;;;;;;5.72;4.90;;;20.80;96.40;;;;;;5054149;28;20163;-75
2021/05/28 06:49:30;;;;;;;7.63;4.82;;;20.90;96.20;;;;;;5053034;28;20466;-75
2021/05/28 06:51:56;;;;;;;5.15;4.57;;;21.00;96.00;;;;;;5054239;28;20099;-75
2021/05/28 06:54:22;;;;;;;4.70;4.30;;;21.10;95.60;;;;;;5053642;28;20044;-75
2021/05/28 06:56:52;;;;;;;5.75;4.63;;;21.10;95.40;;;;;;5053328;28;20025;-74
2021/05/28 06:59:18;;;;;;;5.45;4.95;;;21.20;95.50;;;;;;5053052;28;20104;-76
2021/05/28 07:01:44;;;;;;;4.97;4.28;;;21.20;95.20;;;;;;5052184;28;20112;-77
2021/05/28 07:04:09;;;;;;;8.77;4.45;;;21.20;95.10;;;;;;5053365;28;20025;-76
2021/05/28 07:06:37;;;;;;;4.30;3.90;;;21.30;94.70;;;;;;5035939;28;20071;-78
2021/05/28 07:09:13;;;;;;;4.00;3.70;;;21.20;94.60;;;;;;5052527;28;20113;-76
2021/05/28 07:11:49;;;;;;;5.72;4.50;;;21.30;94.40;;;;;;5020033;28;20032;-76
2021/05/28 07:14:17;;;;;;;4.55;4.15;;;21.30;94.30;;;;;;5052820;28;20032;-76
2021/05/28 07:16:45;;;;;;;5.95;4.38;;;21.30;94.40;;;;;;5052155;28;20079;-75
2021/05/28 07:19:11;;;;;;;4.90;4.38;;;21.30;94.20;;;;;;5035873;28;20084;-74
2021/05/28 07:21:59;;;;;;;7.90;5.43;;;21.40;93.90;;;;;;5052368;28;20406;-73
2021/05/28 07:24:26;;;;;;;4.38;3.88;;;21.40;93.80;;;;;;5052381;28;20041;-74
2021/05/28 07:26:54;;;;;;;4.78;3.80;;;21.40;93.70;;;;;;5032545;28;20064;-76
2021/05/28 07:29:44;;;;;;;5.75;4.25;;;21.50;93.50;;;;;;5014250;28;20057;-74
2021/05/28 07:32:13;;;;;;;5.43;3.92;;;21.50;93.60;;;;;;5031420;28;20493;-75
2021/05/28 07:34:39;;;;;;;4.40;4.00;;;21.50;93.80;;;;;;5032370;28;20037;-74
2021/05/28 07:37:17;;;;;;;3.90;3.60;;;21.50;93.50;;;;;;5032262;28;20038;-73
2021/05/28 07:39:52;;;;;;;4.78;4.00;;;21.60;93.10;;;;;;5032178;28;20026;-73
2021/05/28 07:42:19;;;;;;;3.97;3.60;;;21.60;93.10;;;;;;5014900;28;20382;-78
2021/05/28 07:44:45;;;;;;;7.13;4.13;;;21.70;92.90;;;;;;5012609;28;20021;-75
2021/05/28 07:47:11;;;;;;;5.05;4.00;;;21.70;92.50;;;;;;4994744;28;20511;-75
2021/05/28 07:49:41;;;;;;;4.25;3.90;;;21.70;92.80;;;;;;5003263;28;20037;-76
2021/05/28 07:52:07;;;;;;;3.83;3.15;;;21.80;92.30;;;;;;5018409;28;20034;-77
2021/05/28 07:54:34;;;;;;;6.13;3.50;;;21.80;92.00;;;;;;5019154;28;20033;-75
2021/05/28 07:57:05;;;;;;;3.78;3.38;;;21.90;91.20;;;;;;5034805;28;20037;-75
2021/05/28 07:59:31;;;;;;;3.50;3.20;;;21.90;91.30;;;;;;5018914;28;20028;-76
2021/05/28 08:01:58;;;;;;;3.97;3.20;;;21.90;90.80;;;;;;5018023;28;20022;-77
2021/05/28 08:04:24;;;;;;;4.75;3.38;;;22.00;90.70;;;;;;5002218;28;20053;-77
2021/05/28 08:06:54;;;;;;;3.72;3.42;;;22.00;90.40;;;;;;5036544;28;20468;-78
2021/05/28 08:09:23;;;;;;;3.53;3.08;;;22.10;90.90;;;;;;5018327;28;20029;-76
2021/05/28 08:11:50;;;;;;;3.08;2.78;;;22.10;90.80;;;;;;5035705;28;20027;-74
2021/05/28 08:14:16;;;;;;;10.63;3.47;;;22.20;90.20;;;;;;5001842;28;20151;-75
2021/05/28 08:16:56;;;;;;;;;;;;;;;;;;;;;
2021/05/28 08:19:22;;;;;;;3.20;2.90;;;22.30;88.60;;;;;;5035397;28;20028;-75
2021/05/28 08:21:58;;;;;;;2.97;2.75;;;22.30;88.20;;;;;;5017742;28;20108;-75
2021/05/28 08:24:24;;;;;;;3.05;2.78;;;22.30;88.60;;;;;;5035220;28;20049;-75
2021/05/28 08:27:07;;;;;;;3.35;3.10;;;22.40;88.50;;;;;;5036305;28;20061;-77
2021/05/28 08:29:36;;;;;;;4.80;3.42;;;22.40;89.40;;;;;;5037089;28;20489;-76
2021/05/28 08:32:18;;;;;;;3.78;3.33;;;22.40;89.10;;;;;;5036696;28;20029;-75
2021/05/28 08:34:46;;;;;;;3.35;3.00;;;22.50;89.00;;;;;;5036629;28;20084;-76
2021/05/28 08:37:14;;;;;;;3.35;3.08;;;22.50;89.10;;;;;;5019181;28;20040;-76
2021/05/28 08:39:41;;;;;;;3.92;3.35;;;22.60;87.60;;;;;;5036511;28;20013;-75
2021/05/28 08:42:10;;;;;;;3.95;3.25;;;22.70;87.90;;;;;;5019080;28;20443;-76
2021/05/28 08:44:52;;;;;;;3.20;3.00;;;22.70;87.40;;;;;;5035927;28;20084;-76
2021/05/28 08:47:20;;;;;;;3.83;3.25;;;22.70;87.80;;;;;;5018877;28;20038;-76
2021/05/28 08:50:00;;;;;;;3.30;3.00;;;22.80;86.20;;;;;;5022927;28;20061;-75
2021/05/28 08:52:28;;;;;;;4.93;2.90;;;22.90;86.00;;;;;;5020528;28;20030;-76
2021/05/28 08:54:54;;;;;;;3.13;2.92;;;23.00;86.00;;;;;;5035586;28;20034;-75
2021/05/28 08:57:22;;;;;;;3.83;3.53;;;22.90;86.30;;;;;;5036126;28;20032;-76
2021/05/28 09:00:05;;;;;;;3.72;3.42;;;23.00;85.80;;;;;;5022880;28;20116;-76
2021/05/28 09:02:38;;;;;;;6.05;3.70;;;23.10;86.50;;;;;;5036234;28;20612;-77
2021/05/28 09:05:05;;;;;;;5.65;3.55;;;23.10;86.10;;;;;;5019339;28;20523;-76
2021/05/28 09:07:52;;;;;;;3.60;3.40;;;23.20;86.40;;;;;;5018001;28;20060;-76
2021/05/28 09:10:35;;;;;;;4.57;3.63;;;23.20;87.60;;;;;;5035924;28;20079;-79
2021/05/28 09:13:21;;;;;;;3.72;3.30;;;23.20;88.40;;;;;;5017873;28;20444;-76
2021/05/28 09:15:50;;;;;;;4.50;4.10;;;23.20;89.00;;;;;;5035554;28;20029;-77
2021/05/28 09:18:46;;;;;;;4.07;3.60;;;23.30;89.20;;;;;;5017810;28;20029;-81
2021/05/28 09:21:40;;;;;;;4.78;3.70;;;23.30;89.30;;;;;;5019964;28;20423;-76
2021/05/28 09:24:51;;;;;;;4.35;3.88;;;23.50;88.80;;;;;;5035481;28;20101;-76
2021/05/28 09:27:24;;;;;;;4.78;3.83;;;23.40;88.80;;;;;;5051685;28;20444;-76
2021/05/28 09:29:59;;;;;;;4.20;3.90;;;23.40;89.20;;;;;;5053722;28;20021;-78
2021/05/28 09:32:33;;;;;;;5.90;3.78;;;23.50;89.60;;;;;;5054294;28;20032;-75
2021/05/28 09:35:09;;;;;;;4.47;4.05;;;23.50;89.40;;;;;;5052379;28;20028;-77
2021/05/28 09:37:42;;;;;;;4.63;4.22;;;23.60;88.80;;;;;;5054456;28;20040;-74
2021/05/28 09:40:26;;;;;;;4.95;4.43;;;23.70;87.60;;;;;;5054061;28;20021;-77
2021/05/28 09:42:57;;;;;;;3.92;3.60;;;23.70;87.50;;;;;;5054461;28;20017;-76
2021/05/28 09:45:32;;;;;;;3.95;3.65;;;23.80;87.40;;;;;;5054687;28;20021;-75
2021/05/28 09:48:44;;;;;;;4.90;3.72;;;23.80;86.60;;;;;;5053578;28;20040;-76
2021/05/28 09:51:12;;;;;;;6.05;4.00;;;23.80;85.60;;;;;;5029199;28;20037;-75
2021/05/28 09:53:43;;;;;;;5.82;4.30;;;23.80;85.90;;;;;;5034313;28;20022;-78
2021/05/28 09:56:43;;;;;;;4.00;3.60;;;23.80;85.70;;;;;;5034131;28;20039;-76
2021/05/28 09:59:09;;;;;;;5.82;4.03;;;23.80;86.70;;;;;;5020524;28;20107;-77
2021/05/28 10:01:53;;;;;;;4.63;3.85;;;23.90;85.90;;;;;;5016879;28;20456;-77
2021/05/28 10:04:31;;;;;;;6.15;3.90;;;23.90;85.80;;;;;;5034107;28;20026;-77
2021/05/28 10:06:57;;;;;;;5.60;3.50;;;23.90;85.50;;;;;;5000470;28;20458;-77
2021/05/28 10:09:24;;;;;;;3.92;3.60;;;23.90;86.10;;;;;;5034120;28;20364;-77
2021/05/28 10:11:52;;;;;;;4.75;3.83;;;23.90;86.40;;;;;;5033266;28;20029;-76
2021/05/28 10:14:17;;;;;;;4.85;3.85;;;24.00;87.00;;;;;;5033592;28;20025;-75
2021/05/28 10:16:46;;;;;;;3.55;3.25;;;24.00;86.00;;;;;;5015948;28;20473;-76
2021/05/28 10:19:13;;;;;;;5.97;3.63;;;24.00;86.20;;;;;;5041017;28;20036;-75
2021/05/28 10:21:38;;;;;;;3.70;3.40;;;24.00;85.30;;;;;;5035856;28;20531;-77
2021/05/28 10:24:06;;;;;;;3.40;3.20;;;24.10;85.60;;;;;;5053898;28;20028;-75
2021/05/28 10:26:35;;;;;;;4.88;3.35;;;24.10;84.80;;;;;;5037323;28;20124;-75
2021/05/28 10:29:02;;;;;;;3.92;3.20;;;24.10;84.60;;;;;;5016647;28;20463;-77
2021/05/28 10:31:52;;;;;;;3.85;3.20;;;24.20;82.60;;;;;;5016336;28;20030;-74
2021/05/28 10:34:22;;;;;;;3.63;3.35;;;24.20;80.20;;;;;;5034036;28;20025;-76
2021/05/28 10:37:14;;;;;;;6.97;3.55;;;24.30;77.40;;;;;;5034478;28;20037;-73
2021/05/28 10:39:47;;;;;;;4.15;3.10;;;24.40;75.90;;;;;;5032794;28;20061;-76
2021/05/28 10:42:13;;;;;;;3.60;2.90;;;24.40;76.50;;;;;;5034513;28;20028;-75
2021/05/28 10:44:42;;;;;;;4.43;2.95;;;24.40;75.80;;;;;;5034241;28;20093;-75
2021/05/28 10:47:24;;;;;;;3.55;3.05;;;24.40;75.80;;;;;;5034268;28;20025;-75
2021/05/28 10:49:53;;;;;;;3.65;2.90;;;24.50;75.60;;;;;;5033654;28;20032;-76
2021/05/28 10:52:37;;;;;;;3.47;2.75;;;24.50;76.60;;;;;;5016422;28;20036;-74
2021/05/28 10:55:15;;;;;;;3.08;2.88;;;24.50;77.30;;;;;;5033814;28;20483;-75
2021/05/28 10:57:50;;;;;;;5.90;3.20;;;24.60;76.30;;;;;;5034469;28;20363;-76
2021/05/28 11:00:35;;;;;;;5.28;3.53;;;24.60;74.20;;;;;;5033886;28;20093;-74
2021/05/28 11:03:20;;;;;;;4.68;3.20;;;24.60;73.50;;;;;;5033542;28;20120;-75
2021/05/28 11:05:50;;;;;;;3.20;2.97;;;24.70;73.80;;;;;;5034310;28;20025;-75
2021/05/28 11:08:37;;;;;;;3.08;2.80;;;24.80;75.40;;;;;;5033914;28;20022;-76
2021/05/28 11:11:05;;;;;;;2.85;2.63;;;25.00;73.10;;;;;;5033891;28;20057;-76
2021/05/28 11:13:30;;;;;;;3.88;2.97;;;25.10;72.20;;;;;;5016330;28;20030;-76
2021/05/28 11:15:58;;;;;;;4.75;3.03;;;25.20;69.30;;;;;;5034105;28;20032;-75
2021/05/28 11:18:31;;;;;;;3.72;3.03;;;25.30;70.20;;;;;;5016027;28;20021;-75
2021/05/28 11:21:26;;;;;;;3.10;2.80;;;25.30;71.30;;;;;;5033683;28;20021;-76
2021/05/28 11:23:54;;;;;;;2.83;2.63;;;25.30;69.20;;;;;;5018577;28;20041;-75
2021/05/28 11:26:27;;;;;;;4.15;2.50;;;25.30;68.90;;;;;;5036965;28;20057;-75
2021/05/28 11:29:01;;;;;;;2.90;2.67;;;25.30;69.60;;;;;;5036166;28;20113;-75
2021/05/28 11:31:29;;;;;;;3.53;2.40;;;25.40;69.00;;;;;;5034820;28;20493;-75
2021/05/28 11:34:15;;;;;;;3.05;2.75;;;25.40;69.20;;;;;;5036565;28;20025;-75
2021/05/28 11:36:42;;;;;;;3.35;2.80;;;25.30;70.50;;;;;;5036361;28;20030;-75
2021/05/28 11:39:23;;;;;;;3.05;2.60;;;25.20;70.40;;;;;;5036436;28;20471;-75
2021/05/28 11:42:03;;;;;;;4.22;2.78;;;25.10;70.80;;;;;;5035117;28;20512;-75
2021/05/28 11:44:34;;;;;;;3.25;2.50;;;25.00;70.40;;;;;;5036505;28;20049;-75
2021/05/28 11:47:03;;;;;;;3.10;2.80;;;24.80;71.10;;;;;;5036350;28;20033;-74
2021/05/28 11:49:29;;;;;;;4.03;2.90;;;24.70;74.30;;;;;;5035482;28;20121;-74
2021/05/28 11:52:05;;;;;;;5.50;3.40;;;24.50;74.40;;;;;;5036138;28;20159;-75
2021/05/28 11:54:36;;;;;;;4.68;3.60;;;24.40;75.00;;;;;;5035929;28;20021;-73
2021/05/28 11:57:03;;;;;;;4.47;3.58;;;24.30;75.80;;;;;;5035918;28;20032;-73
2021/05/28 11:59:49;;;;;;;5.57;4.25;;;24.10;77.40;;;;;;5035555;28;20025;-75
2021/05/28 12:02:38;;;;;;;6.55;4.57;;;24.00;77.10;;;;;;5018480;28;20053;-74
2021/05/28 12:05:38;;;;;;;8.33;4.90;;;23.90;80.30;;;;;;5016552;28;20068;-75
2021/05/28 12:08:30;;;;;;;7.78;4.93;;;23.70;82.90;;;;;;5016215;28;20073;-75
2021/05/28 12:11:12;;;;;;;6.22;4.45;;;23.60;85.20;;;;;;5010292;28;20444;-74
2021/05/28 12:13:41;;;;;;;13.95;9.23;;;23.60;85.30;;;;;;5017964;28;20080;-90
2021/05/28 12:16:24;;;;;;;12.75;8.80;;;23.50;85.20;;;;;;5017100;28;20114;-72
2021/05/28 12:18:52;;;;;;;9.60;6.30;;;23.30;87.20;;;;;;5015203;28;20029;-73
2021/05/28 12:21:24;;;;;;;9.70;5.00;;;23.20;88.00;;;;;;5015079;28;20084;-73
2021/05/28 12:23:51;;;;;;;8.02;5.30;;;23.20;89.00;;;;;;4997551;28;20422;-72
2021/05/28 12:26:19;;;;;;;8.93;5.00;;;23.10;89.80;;;;;;5016582;28;20038;-73
2021/05/28 12:28:54;;;;;;;5.40;4.78;;;23.10;90.20;;;;;;5006394;28;20148;-74
2021/05/28 12:31:27;;;;;;;34.20;28.58;;;23.10;90.70;;;;;;5018582;28;20457;-73
2021/05/28 12:34:09;;;;;;;17.40;14.57;;;23.10;90.90;;;;;;5035899;28;20030;-73
2021/05/28 12:36:39;;;;;;;11.45;8.07;;;23.10;91.40;;;;;;5018829;28;20124;-73
2021/05/28 12:39:09;;;;;;;12.73;7.88;;;23.30;91.80;;;;;;5036762;28;20028;-73
2021/05/28 12:41:42;;;;;;;17.40;8.98;;;23.60;92.40;;;;;;5036735;28;20366;-73
2021/05/28 12:44:08;;;;;;;18.35;9.25;;;24.30;92.00;;;;;;5036479;28;20025;-74
2021/05/28 12:46:38;;;;;;;14.32;9.23;;;25.00;91.50;;;;;;5036426;28;20043;-73
2021/05/28 12:49:06;;;;;;;13.65;9.10;;;25.60;90.80;;;;;;5036268;28;20025;-73
2021/05/28 12:51:50;;;;;;;13.52;8.70;;;26.10;90.70;;;;;;5035719;28;20060;-73
2021/05/28 12:54:21;;;;;;;11.15;7.70;;;27.10;90.80;;;;;;5018962;28;20033;-73
2021/05/28 12:56:48;;;;;;;16.70;6.57;;;28.10;89.60;;;;;;5035973;28;20363;-73
2021/05/28 12:59:33;;;;;;;8.80;4.80;;;29.40;85.80;;;;;;5036134;28;20024;-73
2021/05/28 13:02:11;;;;;;;6.07;3.97;;;30.70;81.60;;;;;;5036327;28;20119;-73
2021/05/28 13:04:56;;;;;;;10.48;4.75;;;31.80;75.00;;;;;;5036305;28;20455;-74
2021/05/28 13:07:41;;;;;;;10.15;4.45;;;32.90;70.50;;;;;;5035858;28;20026;-74
2021/05/28 13:10:36;;;;;;;12.77;4.00;;;33.60;66.20;;;;;;5036135;28;20482;-74
2021/05/28 13:13:23;;;;;;;8.10;3.95;;;34.00;63.50;;;;;;5018601;28;20041;-74